sensor_id;sensor_type;location;lat;lon;timestamp;P1;durP1;ratioP1;P2;durP2;ratioP2
65751;SDS011;52486;51.098;13.770;2022-10-16T00:01:10;1.00;;;0.90;;
65751;SDS011;52486;51.098;13.770;2022-10-16T00:03:37;0.90;;;0.90;;
65751;SDS011;52486;51.098;13.770;2022-10-16T00:06:03;0.80;;;0.80;;
65751;SDS011;52486;51.098;13.770;2022-10-16T00:08:30;1.27;;;1.17;;
65751;SDS011;52486;51.098;13.770;2022-10-16T00:11:03;0.93;;;0.93;;
65751;SDS011;52486;51.098;13.770;2022-10-16T00:13:37;1.25;;;1.00;;
65751;SDS011;52486;51.098;13.770;2022-10-16T00:16:04;1.00;;;1.00;;
65751;SDS011;52486;51.098;13.770;2022-10-16T00:18:30;1.00;;;1.00;;
65751;SDS011;52486;51.098;13.770;2022-10-16T00:21:01;1.00;;;1.00;;
65751;SDS011;52486;51.098;13.770;2022-10-16T00:23:31;0.80;;;0.80;;
65751;SDS011;52486;51.098;13.770;2022-10-16T00:25:58;1.00;;;1.00;;
65751;SDS011;52486;51.098;13.770;2022-10-16T00:28:26;1.00;;;1.00;;
65751;SDS011;52486;51.098;13.770;2022-10-16T00:30:52;1.00;;;1.00;;
65751;SDS011;52486;51.098;13.770;2022-10-16T00:33:19;1.15;;;1.10;;
65751;SDS011;52486;51.098;13.770;2022-10-16T00:35:44;1.00;;;1.00;;
65751;SDS011;52486;51.098;13.770;2022-10-16T00:38:10;1.15;;;1.08;;
65751;SDS011;52486;51.098;13.770;2022-10-16T00:40:36;0.90;;;0.90;;
65751;SDS011;52486;51.098;13.770;2022-10-16T00:43:01;0.77;;;0.77;;
65751;SDS011;52486;51.098;13.770;2022-10-16T00:45:27;0.82;;;0.82;;
65751;SDS011;52486;51.098;13.770;2022-10-16T00:47:53;1.10;;;1.10;;
65751;SDS011;52486;51.098;13.770;2022-10-16T00:50:28;0.80;;;0.80;;
65751;SDS011;52486;51.098;13.770;2022-10-16T00:52:56;0.85;;;0.85;;
65751;SDS011;52486;51.098;13.770;2022-10-16T00:55:23;0.88;;;0.88;;
65751;SDS011;52486;51.098;13.770;2022-10-16T00:57:49;0.98;;;0.98;;
65751;SDS011;52486;51.098;13.770;2022-10-16T01:00:17;1.10;;;1.10;;
65751;SDS011;52486;51.098;13.770;2022-10-16T01:02:52;0.80;;;0.80;;
65751;SDS011;52486;51.098;13.770;2022-10-16T01:05:22;0.80;;;0.80;;
65751;SDS011;52486;51.098;13.770;2022-10-16T01:12:57;0.90;;;0.90;;
65751;SDS011;52486;51.098;13.770;2022-10-16T01:15:30;1.05;;;1.05;;
65751;SDS011;52486;51.098;13.770;2022-10-16T01:18:21;1.00;;;1.00;;
65751;SDS011;52486;51.098;13.770;2022-10-16T01:20:54;1.15;;;1.05;;
65751;SDS011;52486;51.098;13.770;2022-10-16T01:23:30;0.82;;;0.82;;
65751;SDS011;52486;51.098;13.770;2022-10-16T01:26:13;1.00;;;1.00;;
65751;SDS011;52486;51.098;13.770;2022-10-16T01:31:47;1.45;;;0.98;;
65751;SDS011;52486;51.098;13.770;2022-10-16T01:34:25;1.20;;;1.10;;
65751;SDS011;52486;51.098;13.770;2022-10-16T01:37:05;0.90;;;0.90;;
65751;SDS011;52486;51.098;13.770;2022-10-16T01:39:41;1.00;;;1.00;;
65751;SDS011;52486;51.098;13.770;2022-10-16T01:42:30;1.00;;;1.00;;
65751;SDS011;52486;51.098;13.770;2022-10-16T01:45:01;1.10;;;1.00;;
65751;SDS011;52486;51.098;13.770;2022-10-16T01:47:31;0.80;;;0.80;;
65751;SDS011;52486;51.098;13.770;2022-10-16T01:49:58;0.93;;;0.93;;
65751;SDS011;52486;51.098;13.770;2022-10-16T01:52:26;0.90;;;0.90;;
65751;SDS011;52486;51.098;13.770;2022-10-16T01:54:53;1.00;;;1.00;;
65751;SDS011;52486;51.098;13.770;2022-10-16T01:57:21;1.20;;;0.90;;
65751;SDS011;52486;51.098;13.770;2022-10-16T01:59:50;1.10;;;1.10;;
65751;SDS011;52486;51.098;13.770;2022-10-16T02:02:19;0.98;;;0.82;;
65751;SDS011;52486;51.098;13.770;2022-10-16T02:04:48;1.08;;;1.00;;
65751;SDS011;52486;51.098;13.770;2022-10-16T02:07:18;0.95;;;0.95;;
65751;SDS011;52486;51.098;13.770;2022-10-16T02:09:43;1.17;;;1.08;;
65751;SDS011;52486;51.098;13.770;2022-10-16T02:12:12;1.00;;;1.00;;
65751;SDS011;52486;51.098;13.770;2022-10-16T02:14:44;0.95;;;0.95;;
65751;SDS011;52486;51.098;13.770;2022-10-16T02:17:10;0.93;;;0.90;;
65751;SDS011;52486;51.098;13.770;2022-10-16T02:19:38;1.00;;;1.00;;
65751;SDS011;52486;51.098;13.770;2022-10-16T02:22:04;1.00;;;1.00;;
65751;SDS011;52486;51.098;13.770;2022-10-16T02:24:33;0.98;;;0.98;;
65751;SDS011;52486;51.098;13.770;2022-10-16T02:30:34;1.02;;;1.00;;
65751;SDS011;52486;51.098;13.770;2022-10-16T02:33:05;1.05;;;1.05;;
65751;SDS011;52486;51.098;13.770;2022-10-16T02:35:34;1.13;;;1.02;;
65751;SDS011;52486;51.098;13.770;2022-10-16T02:38:01;1.00;;;1.00;;
65751;SDS011;52486;51.098;13.770;2022-10-16T02:40:27;1.10;;;1.10;;
65751;SDS011;52486;51.098;13.770;2022-10-16T02:42:54;0.98;;;0.98;;
65751;SDS011;52486;51.098;13.770;2022-10-16T02:45:20;1.00;;;1.00;;
65751;SDS011;52486;51.098;13.770;2022-10-16T02:47:47;1.02;;;1.02;;
65751;SDS011;52486;51.098;13.770;2022-10-16T02:50:13;1.02;;;1.02;;
65751;SDS011;52486;51.098;13.770;2022-10-16T02:52:39;1.02;;;1.02;;
65751;SDS011;52486;51.098;13.770;2022-10-16T02:55:05;0.98;;;0.98;;
65751;SDS011;52486;51.098;13.770;2022-10-16T02:57:31;1.30;;;1.20;;
65751;SDS011;52486;51.098;13.770;2022-10-16T02:59:56;0.93;;;0.93;;
65751;SDS011;52486;51.098;13.770;2022-10-16T03:02:22;0.88;;;0.88;;
65751;SDS011;52486;51.098;13.770;2022-10-16T03:04:48;0.88;;;0.88;;
65751;SDS011;52486;51.098;13.770;2022-10-16T03:07:13;0.95;;;0.95;;
65751;SDS011;52486;51.098;13.770;2022-10-16T03:09:39;1.02;;;1.00;;
65751;SDS011;52486;51.098;13.770;2022-10-16T03:12:05;1.10;;;1.10;;
65751;SDS011;52486;51.098;13.770;2022-10-16T03:14:31;1.02;;;1.02;;
65751;SDS011;52486;51.098;13.770;2022-10-16T03:16:56;1.23;;;1.13;;
65751;SDS011;52486;51.098;13.770;2022-10-16T03:19:22;0.90;;;0.90;;
65751;SDS011;52486;51.098;13.770;2022-10-16T03:21:47;0.93;;;0.90;;
65751;SDS011;52486;51.098;13.770;2022-10-16T03:24:13;1.17;;;1.10;;
65751;SDS011;52486;51.098;13.770;2022-10-16T03:26:39;0.95;;;0.95;;
65751;SDS011;52486;51.098;13.770;2022-10-16T03:29:04;0.90;;;0.85;;
65751;SDS011;52486;51.098;13.770;2022-10-16T03:31:30;1.10;;;1.00;;
65751;SDS011;52486;51.098;13.770;2022-10-16T03:33:56;1.10;;;1.10;;
65751;SDS011;52486;51.098;13.770;2022-10-16T03:36:22;1.00;;;0.90;;
65751;SDS011;52486;51.098;13.770;2022-10-16T03:38:47;0.88;;;0.88;;
65751;SDS011;52486;51.098;13.770;2022-10-16T03:41:13;1.10;;;1.05;;
65751;SDS011;52486;51.098;13.770;2022-10-16T03:43:38;0.98;;;0.98;;
65751;SDS011;52486;51.098;13.770;2022-10-16T03:46:04;1.20;;;1.10;;
65751;SDS011;52486;51.098;13.770;2022-10-16T03:48:29;1.05;;;1.00;;
65751;SDS011;52486;51.098;13.770;2022-10-16T03:50:55;1.00;;;1.00;;
65751;SDS011;52486;51.098;13.770;2022-10-16T03:53:21;0.90;;;0.90;;
65751;SDS011;52486;51.098;13.770;2022-10-16T03:55:46;0.90;;;0.90;;
65751;SDS011;52486;51.098;13.770;2022-10-16T03:58:12;1.00;;;1.00;;
65751;SDS011;52486;51.098;13.770;2022-10-16T04:00:41;1.00;;;1.00;;
65751;SDS011;52486;51.098;13.770;2022-10-16T04:03:08;1.05;;;1.05;;
65751;SDS011;52486;51.098;13.770;2022-10-16T04:05:33;0.90;;;0.90;;
65751;SDS011;52486;51.098;13.770;2022-10-16T04:07:59;0.98;;;0.98;;
65751;SDS011;52486;51.098;13.770;2022-10-16T04:10:24;0.90;;;0.90;;
65751;SDS011;52486;51.098;13.770;2022-10-16T04:12:50;1.02;;;1.02;;
65751;SDS011;52486;51.098;13.770;2022-10-16T04:15:15;1.00;;;1.00;;
65751;SDS011;52486;51.098;13.770;2022-10-16T04:17:41;1.00;;;1.00;;
65751;SDS011;52486;51.098;13.770;2022-10-16T04:20:07;1.17;;;1.10;;
65751;SDS011;52486;51.098;13.770;2022-10-16T04:22:33;1.05;;;1.00;;
65751;SDS011;52486;51.098;13.770;2022-10-16T04:24:58;0.88;;;0.88;;
65751;SDS011;52486;51.098;13.770;2022-10-16T04:27:24;0.95;;;0.95;;
65751;SDS011;52486;51.098;13.770;2022-10-16T04:29:49;0.95;;;0.95;;
65751;SDS011;52486;51.098;13.770;2022-10-16T04:32:15;1.05;;;1.05;;
65751;SDS011;52486;51.098;13.770;2022-10-16T04:34:40;0.98;;;0.98;;
65751;SDS011;52486;51.098;13.770;2022-10-16T04:37:06;1.00;;;1.00;;
65751;SDS011;52486;51.098;13.770;2022-10-16T04:39:31;1.17;;;1.08;;
65751;SDS011;52486;51.098;13.770;2022-10-16T04:41:57;1.00;;;1.00;;
65751;SDS011;52486;51.098;13.770;2022-10-16T04:44:23;1.02;;;1.02;;
65751;SDS011;52486;51.098;13.770;2022-10-16T04:46:50;1.02;;;1.02;;
65751;SDS011;52486;51.098;13.770;2022-10-16T04:49:16;1.25;;;1.17;;
65751;SDS011;52486;51.098;13.770;2022-10-16T04:51:41;0.98;;;0.98;;
65751;SDS011;52486;51.098;13.770;2022-10-16T04:54:08;1.17;;;1.10;;
65751;SDS011;52486;51.098;13.770;2022-10-16T04:56:34;1.20;;;1.10;;
65751;SDS011;52486;51.098;13.770;2022-10-16T04:59:05;0.85;;;0.85;;
65751;SDS011;52486;51.098;13.770;2022-10-16T05:01:30;0.90;;;0.90;;
65751;SDS011;52486;51.098;13.770;2022-10-16T05:03:56;1.00;;;1.00;;
65751;SDS011;52486;51.098;13.770;2022-10-16T05:06:21;1.00;;;1.00;;
65751;SDS011;52486;51.098;13.770;2022-10-16T05:08:47;1.13;;;1.13;;
65751;SDS011;52486;51.098;13.770;2022-10-16T05:11:13;1.10;;;1.05;;
65751;SDS011;52486;51.098;13.770;2022-10-16T05:13:38;0.90;;;0.90;;
65751;SDS011;52486;51.098;13.770;2022-10-16T05:16:04;1.30;;;1.20;;
65751;SDS011;52486;51.098;13.770;2022-10-16T05:18:29;1.00;;;1.00;;
65751;SDS011;52486;51.098;13.770;2022-10-16T05:20:55;1.00;;;1.00;;
65751;SDS011;52486;51.098;13.770;2022-10-16T05:23:20;1.05;;;1.02;;
65751;SDS011;52486;51.098;13.770;2022-10-16T05:25:55;0.93;;;0.93;;
65751;SDS011;52486;51.098;13.770;2022-10-16T05:28:23;0.98;;;0.98;;
65751;SDS011;52486;51.098;13.770;2022-10-16T05:30:49;1.15;;;1.10;;
65751;SDS011;52486;51.098;13.770;2022-10-16T05:33:15;0.98;;;0.98;;
65751;SDS011;52486;51.098;13.770;2022-10-16T05:35:41;1.15;;;1.10;;
65751;SDS011;52486;51.098;13.770;2022-10-16T05:38:07;1.10;;;1.10;;
65751;SDS011;52486;51.098;13.770;2022-10-16T05:40:32;1.05;;;1.05;;
65751;SDS011;52486;51.098;13.770;2022-10-16T05:42:58;0.90;;;0.90;;
65751;SDS011;52486;51.098;13.770;2022-10-16T05:45:23;1.10;;;1.10;;
65751;SDS011;52486;51.098;13.770;2022-10-16T05:47:49;0.90;;;0.90;;
65751;SDS011;52486;51.098;13.770;2022-10-16T05:50:15;1.23;;;1.13;;
65751;SDS011;52486;51.098;13.770;2022-10-16T05:52:40;0.85;;;0.85;;
65751;SDS011;52486;51.098;13.770;2022-10-16T05:55:06;0.95;;;0.95;;
65751;SDS011;52486;51.098;13.770;2022-10-16T05:57:32;1.23;;;1.13;;
65751;SDS011;52486;51.098;13.770;2022-10-16T05:59:57;1.08;;;1.08;;
65751;SDS011;52486;51.098;13.770;2022-10-16T06:02:23;1.20;;;1.10;;
65751;SDS011;52486;51.098;13.770;2022-10-16T06:04:48;1.10;;;1.10;;
65751;SDS011;52486;51.098;13.770;2022-10-16T06:07:14;1.10;;;1.08;;
65751;SDS011;52486;51.098;13.770;2022-10-16T06:09:39;0.98;;;0.98;;
65751;SDS011;52486;51.098;13.770;2022-10-16T06:12:05;1.17;;;1.10;;
65751;SDS011;52486;51.098;13.770;2022-10-16T06:14:30;1.05;;;1.05;;
65751;SDS011;52486;51.098;13.770;2022-10-16T06:16:56;1.13;;;1.13;;
65751;SDS011;52486;51.098;13.770;2022-10-16T06:19:22;1.20;;;1.10;;
65751;SDS011;52486;51.098;13.770;2022-10-16T06:21:48;0.90;;;0.90;;
65751;SDS011;52486;51.098;13.770;2022-10-16T06:24:13;1.10;;;1.10;;
65751;SDS011;52486;51.098;13.770;2022-10-16T06:26:39;1.00;;;1.00;;
65751;SDS011;52486;51.098;13.770;2022-10-16T06:29:04;1.00;;;1.00;;
65751;SDS011;52486;51.098;13.770;2022-10-16T06:31:30;1.10;;;1.00;;
65751;SDS011;52486;51.098;13.770;2022-10-16T06:33:58;0.80;;;0.80;;
65751;SDS011;52486;51.098;13.770;2022-10-16T06:36:24;0.98;;;0.98;;
65751;SDS011;52486;51.098;13.770;2022-10-16T06:38:50;1.25;;;1.17;;
65751;SDS011;52486;51.098;13.770;2022-10-16T06:41:17;1.08;;;1.00;;
65751;SDS011;52486;51.098;13.770;2022-10-16T06:43:45;1.17;;;1.15;;
65751;SDS011;52486;51.098;13.770;2022-10-16T06:46:12;1.00;;;1.00;;
65751;SDS011;52486;51.098;13.770;2022-10-16T06:48:39;0.95;;;0.95;;
65751;SDS011;52486;51.098;13.770;2022-10-16T06:51:13;1.08;;;1.08;;
65751;SDS011;52486;51.098;13.770;2022-10-16T06:53:42;1.23;;;1.20;;
65751;SDS011;52486;51.098;13.770;2022-10-16T06:56:09;1.20;;;1.10;;
65751;SDS011;52486;51.098;13.770;2022-10-16T06:58:42;1.30;;;1.20;;
65751;SDS011;52486;51.098;13.770;2022-10-16T07:01:09;1.25;;;1.15;;
65751;SDS011;52486;51.098;13.770;2022-10-16T07:03:42;1.13;;;1.05;;
65751;SDS011;52486;51.098;13.770;2022-10-16T07:06:09;1.27;;;1.23;;
65751;SDS011;52486;51.098;13.770;2022-10-16T07:08:40;1.00;;;1.00;;
65751;SDS011;52486;51.098;13.770;2022-10-16T07:11:14;1.00;;;1.00;;
65751;SDS011;52486;51.098;13.770;2022-10-16T07:13:41;1.10;;;1.10;;
65751;SDS011;52486;51.098;13.770;2022-10-16T07:16:09;1.08;;;1.08;;
65751;SDS011;52486;51.098;13.770;2022-10-16T07:18:37;1.00;;;1.00;;
65751;SDS011;52486;51.098;13.770;2022-10-16T07:21:12;1.40;;;1.30;;
65751;SDS011;52486;51.098;13.770;2022-10-16T07:23:39;1.02;;;1.02;;
65751;SDS011;52486;51.098;13.770;2022-10-16T07:26:05;1.25;;;1.15;;
65751;SDS011;52486;51.098;13.770;2022-10-16T07:28:32;1.30;;;1.23;;
65751;SDS011;52486;51.098;13.770;2022-10-16T07:31:04;1.13;;;1.13;;
65751;SDS011;52486;51.098;13.770;2022-10-16T07:33:32;1.25;;;1.20;;
65751;SDS011;52486;51.098;13.770;2022-10-16T07:35:58;1.10;;;1.10;;
65751;SDS011;52486;51.098;13.770;2022-10-16T07:38:24;1.27;;;0.95;;
65751;SDS011;52486;51.098;13.770;2022-10-16T07:41:22;1.00;;;1.00;;
65751;SDS011;52486;51.098;13.770;2022-10-16T07:43:48;1.17;;;1.08;;
65751;SDS011;52486;51.098;13.770;2022-10-16T07:46:15;1.25;;;1.15;;
65751;SDS011;52486;51.098;13.770;2022-10-16T07:48:42;1.02;;;1.02;;
65751;SDS011;52486;51.098;13.770;2022-10-16T07:51:11;1.27;;;1.20;;
65751;SDS011;52486;51.098;13.770;2022-10-16T07:53:38;1.20;;;1.20;;
65751;SDS011;52486;51.098;13.770;2022-10-16T07:56:04;1.42;;;1.33;;
65751;SDS011;52486;51.098;13.770;2022-10-16T07:58:31;1.23;;;1.20;;
65751;SDS011;52486;51.098;13.770;2022-10-16T08:00:57;1.23;;;1.20;;
65751;SDS011;52486;51.098;13.770;2022-10-16T08:03:24;1.40;;;1.30;;
65751;SDS011;52486;51.098;13.770;2022-10-16T08:05:50;1.40;;;1.30;;
65751;SDS011;52486;51.098;13.770;2022-10-16T08:08:16;1.38;;;1.30;;
65751;SDS011;52486;51.098;13.770;2022-10-16T08:10:43;1.40;;;1.30;;
65751;SDS011;52486;51.098;13.770;2022-10-16T08:13:09;1.20;;;1.10;;
65751;SDS011;52486;51.098;13.770;2022-10-16T08:15:35;1.05;;;1.05;;
65751;SDS011;52486;51.098;13.770;2022-10-16T08:18:01;1.70;;;1.25;;
65751;SDS011;52486;51.098;13.770;2022-10-16T08:20:28;0.88;;;0.88;;
65751;SDS011;52486;51.098;13.770;2022-10-16T08:22:55;1.30;;;1.23;;
65751;SDS011;52486;51.098;13.770;2022-10-16T08:25:21;1.30;;;1.20;;
65751;SDS011;52486;51.098;13.770;2022-10-16T08:27:47;1.20;;;1.10;;
65751;SDS011;52486;51.098;13.770;2022-10-16T08:30:13;1.40;;;1.30;;
65751;SDS011;52486;51.098;13.770;2022-10-16T08:32:39;1.27;;;1.20;;
65751;SDS011;52486;51.098;13.770;2022-10-16T08:35:06;1.27;;;1.17;;
65751;SDS011;52486;51.098;13.770;2022-10-16T08:37:32;0.88;;;0.88;;
65751;SDS011;52486;51.098;13.770;2022-10-16T08:39:58;1.00;;;1.00;;
65751;SDS011;52486;51.098;13.770;2022-10-16T08:42:30;1.20;;;1.10;;
65751;SDS011;52486;51.098;13.770;2022-10-16T08:50:21;1.15;;;1.13;;
65751;SDS011;52486;51.098;13.770;2022-10-16T08:52:49;1.10;;;1.10;;
65751;SDS011;52486;51.098;13.770;2022-10-16T08:55:24;1.20;;;1.10;;
65751;SDS011;52486;51.098;13.770;2022-10-16T08:57:59;0.98;;;0.98;;
65751;SDS011;52486;51.098;13.770;2022-10-16T09:00:26;1.13;;;1.10;;
65751;SDS011;52486;51.098;13.770;2022-10-16T09:10:55;0.88;;;0.88;;
65751;SDS011;52486;51.098;13.770;2022-10-16T09:16:30;1.10;;;1.10;;
65751;SDS011;52486;51.098;13.770;2022-10-16T09:19:01;0.90;;;0.90;;
65751;SDS011;52486;51.098;13.770;2022-10-16T09:21:40;1.40;;;1.30;;
65751;SDS011;52486;51.098;13.770;2022-10-16T09:24:18;1.10;;;1.10;;
65751;SDS011;52486;51.098;13.770;2022-10-16T09:26:50;1.10;;;1.10;;
65751;SDS011;52486;51.098;13.770;2022-10-16T09:29:16;1.30;;;1.20;;
65751;SDS011;52486;51.098;13.770;2022-10-16T09:31:44;1.00;;;1.00;;
65751;SDS011;52486;51.098;13.770;2022-10-16T09:34:17;1.13;;;1.13;;
65751;SDS011;52486;51.098;13.770;2022-10-16T09:36:55;1.15;;;1.10;;
65751;SDS011;52486;51.098;13.770;2022-10-16T09:39:23;1.10;;;1.00;;
65751;SDS011;52486;51.098;13.770;2022-10-16T09:41:49;0.98;;;0.98;;
65751;SDS011;52486;51.098;13.770;2022-10-16T09:44:26;1.00;;;1.00;;
65751;SDS011;52486;51.098;13.770;2022-10-16T09:47:01;1.00;;;1.00;;
65751;SDS011;52486;51.098;13.770;2022-10-16T09:49:51;0.98;;;0.98;;
65751;SDS011;52486;51.098;13.770;2022-10-16T09:52:27;1.00;;;1.00;;
65751;SDS011;52486;51.098;13.770;2022-10-16T09:54:54;1.10;;;1.10;;
65751;SDS011;52486;51.098;13.770;2022-10-16T09:57:21;1.05;;;1.00;;
65751;SDS011;52486;51.098;13.770;2022-10-16T09:59:51;1.00;;;1.00;;
65751;SDS011;52486;51.098;13.770;2022-10-16T10:02:42;1.13;;;1.10;;
65751;SDS011;52486;51.098;13.770;2022-10-16T10:05:16;1.02;;;1.00;;
65751;SDS011;52486;51.098;13.770;2022-10-16T10:07:54;1.00;;;1.00;;
65751;SDS011;52486;51.098;13.770;2022-10-16T10:10:28;0.80;;;0.80;;
65751;SDS011;52486;51.098;13.770;2022-10-16T10:12:55;0.90;;;0.90;;
65751;SDS011;52486;51.098;13.770;2022-10-16T10:15:22;1.15;;;1.05;;
65751;SDS011;52486;51.098;13.770;2022-10-16T10:17:53;0.93;;;0.93;;
65751;SDS011;52486;51.098;13.770;2022-10-16T10:22:50;0.90;;;0.90;;
65751;SDS011;52486;51.098;13.770;2022-10-16T10:25:27;1.00;;;1.00;;
65751;SDS011;52486;51.098;13.770;2022-10-16T10:33:42;0.80;;;0.80;;
65751;SDS011;52486;51.098;13.770;2022-10-16T10:38:58;1.00;;;1.00;;
65751;SDS011;52486;51.098;13.770;2022-10-16T10:44:03;0.90;;;0.90;;
65751;SDS011;52486;51.098;13.770;2022-10-16T10:46:53;0.90;;;0.90;;
65751;SDS011;52486;51.098;13.770;2022-10-16T10:52:12;0.95;;;0.95;;
65751;SDS011;52486;51.098;13.770;2022-10-16T11:00:10;0.95;;;0.95;;
65751;SDS011;52486;51.098;13.770;2022-10-16T11:05:45;1.00;;;1.00;;
65751;SDS011;52486;51.098;13.770;2022-10-16T11:08:20;0.90;;;0.90;;
65751;SDS011;52486;51.098;13.770;2022-10-16T11:11:10;0.88;;;0.88;;
65751;SDS011;52486;51.098;13.770;2022-10-16T11:13:55;0.90;;;0.90;;
65751;SDS011;52486;51.098;13.770;2022-10-16T11:16:26;0.80;;;0.80;;
65751;SDS011;52486;51.098;13.770;2022-10-16T11:21:24;0.90;;;0.90;;
65751;SDS011;52486;51.098;13.770;2022-10-16T11:24:00;0.93;;;0.93;;
65751;SDS011;52486;51.098;13.770;2022-10-16T11:26:33;0.98;;;0.95;;
65751;SDS011;52486;51.098;13.770;2022-10-16T11:29:03;0.80;;;0.80;;
65751;SDS011;52486;51.098;13.770;2022-10-16T11:31:36;0.70;;;0.70;;
65751;SDS011;52486;51.098;13.770;2022-10-16T11:34:52;0.90;;;0.88;;
65751;SDS011;52486;51.098;13.770;2022-10-16T11:37:11;0.90;;;0.90;;
65751;SDS011;52486;51.098;13.770;2022-10-16T11:39:42;0.80;;;0.80;;
65751;SDS011;52486;51.098;13.770;2022-10-16T11:42:10;1.63;;;0.88;;
65751;SDS011;52486;51.098;13.770;2022-10-16T11:44:56;0.88;;;0.88;;
65751;SDS011;52486;51.098;13.770;2022-10-16T11:55:37;0.88;;;0.88;;
65751;SDS011;52486;51.098;13.770;2022-10-16T11:58:06;0.98;;;0.98;;
65751;SDS011;52486;51.098;13.770;2022-10-16T12:00:43;0.85;;;0.85;;
65751;SDS011;52486;51.098;13.770;2022-10-16T12:03:23;0.70;;;0.70;;
65751;SDS011;52486;51.098;13.770;2022-10-16T12:08:28;0.77;;;0.77;;
65751;SDS011;52486;51.098;13.770;2022-10-16T12:11:03;0.80;;;0.80;;
65751;SDS011;52486;51.098;13.770;2022-10-16T12:13:50;0.80;;;0.80;;
65751;SDS011;52486;51.098;13.770;2022-10-16T12:18:43;0.75;;;0.75;;
65751;SDS011;52486;51.098;13.770;2022-10-16T12:21:10;0.73;;;0.70;;
65751;SDS011;52486;51.098;13.770;2022-10-16T12:26:30;0.75;;;0.75;;
65751;SDS011;52486;51.098;13.770;2022-10-16T12:29:09;0.80;;;0.80;;
65751;SDS011;52486;51.098;13.770;2022-10-16T12:31:45;0.60;;;0.60;;
65751;SDS011;52486;51.098;13.770;2022-10-16T12:34:22;0.90;;;0.90;;
65751;SDS011;52486;51.098;13.770;2022-10-16T12:37:08;0.70;;;0.70;;
65751;SDS011;52486;51.098;13.770;2022-10-16T12:39:34;0.80;;;0.80;;
65751;SDS011;52486;51.098;13.770;2022-10-16T12:42:05;0.60;;;0.60;;
65751;SDS011;52486;51.098;13.770;2022-10-16T12:44:56;0.68;;;0.68;;
65751;SDS011;52486;51.098;13.770;2022-10-16T12:47:23;0.75;;;0.75;;
65751;SDS011;52486;51.098;13.770;2022-10-16T12:50:01;0.80;;;0.80;;
65751;SDS011;52486;51.098;13.770;2022-10-16T12:52:35;0.70;;;0.70;;
65751;SDS011;52486;51.098;13.770;2022-10-16T12:55:03;0.70;;;0.70;;
65751;SDS011;52486;51.098;13.770;2022-10-16T12:57:43;0.70;;;0.70;;
65751;SDS011;52486;51.098;13.770;2022-10-16T13:00:32;0.80;;;0.80;;
65751;SDS011;52486;51.098;13.770;2022-10-16T13:03:34;0.70;;;0.70;;
65751;SDS011;52486;51.098;13.770;2022-10-16T13:09:19;0.60;;;0.60;;
65751;SDS011;52486;51.098;13.770;2022-10-16T13:12:30;0.73;;;0.73;;
65751;SDS011;52486;51.098;13.770;2022-10-16T13:18:16;0.70;;;0.70;;
65751;SDS011;52486;51.098;13.770;2022-10-16T13:21:08;0.60;;;0.60;;
65751;SDS011;52486;51.098;13.770;2022-10-16T13:26:23;0.60;;;0.60;;
65751;SDS011;52486;51.098;13.770;2022-10-16T13:29:10;0.70;;;0.70;;
65751;SDS011;52486;51.098;13.770;2022-10-16T13:31:38;0.40;;;0.40;;
65751;SDS011;52486;51.098;13.770;2022-10-16T13:34:04;0.70;;;0.70;;
65751;SDS011;52486;51.098;13.770;2022-10-16T13:36:35;0.60;;;0.60;;
65751;SDS011;52486;51.098;13.770;2022-10-16T13:39:11;0.70;;;0.70;;
65751;SDS011;52486;51.098;13.770;2022-10-16T13:41:37;0.80;;;0.80;;
65751;SDS011;52486;51.098;13.770;2022-10-16T13:44:02;0.65;;;0.65;;
65751;SDS011;52486;51.098;13.770;2022-10-16T13:46:29;0.65;;;0.65;;
65751;SDS011;52486;51.098;13.770;2022-10-16T13:49:10;0.70;;;0.70;;
65751;SDS011;52486;51.098;13.770;2022-10-16T13:51:38;0.57;;;0.57;;
65751;SDS011;52486;51.098;13.770;2022-10-16T13:54:04;0.60;;;0.60;;
65751;SDS011;52486;51.098;13.770;2022-10-16T13:56:30;0.60;;;0.60;;
65751;SDS011;52486;51.098;13.770;2022-10-16T13:59:01;0.70;;;0.70;;
65751;SDS011;52486;51.098;13.770;2022-10-16T14:01:47;0.60;;;0.60;;
65751;SDS011;52486;51.098;13.770;2022-10-16T14:04:14;0.60;;;0.60;;
65751;SDS011;52486;51.098;13.770;2022-10-16T14:06:42;0.57;;;0.57;;
65751;SDS011;52486;51.098;13.770;2022-10-16T14:09:14;0.70;;;0.70;;
65751;SDS011;52486;51.098;13.770;2022-10-16T14:14:17;0.65;;;0.65;;
65751;SDS011;52486;51.098;13.770;2022-10-16T14:16:44;0.60;;;0.60;;
65751;SDS011;52486;51.098;13.770;2022-10-16T14:21:46;0.75;;;0.75;;
65751;SDS011;52486;51.098;13.770;2022-10-16T14:24:13;0.70;;;0.70;;
65751;SDS011;52486;51.098;13.770;2022-10-16T14:26:48;0.60;;;0.60;;
65751;SDS011;52486;51.098;13.770;2022-10-16T14:29:15;0.70;;;0.70;;
65751;SDS011;52486;51.098;13.770;2022-10-16T14:31:53;0.70;;;0.70;;
65751;SDS011;52486;51.098;13.770;2022-10-16T14:34:31;0.60;;;0.60;;
65751;SDS011;52486;51.098;13.770;2022-10-16T14:37:16;0.50;;;0.50;;
65751;SDS011;52486;51.098;13.770;2022-10-16T14:40:01;0.70;;;0.70;;
65751;SDS011;52486;51.098;13.770;2022-10-16T14:42:27;0.75;;;0.75;;
65751;SDS011;52486;51.098;13.770;2022-10-16T14:44:53;0.60;;;0.60;;
65751;SDS011;52486;51.098;13.770;2022-10-16T14:47:23;0.90;;;0.90;;
65751;SDS011;52486;51.098;13.770;2022-10-16T14:49:51;0.50;;;0.50;;
65751;SDS011;52486;51.098;13.770;2022-10-16T14:52:20;0.70;;;0.70;;
65751;SDS011;52486;51.098;13.770;2022-10-16T14:54:47;0.70;;;0.70;;
65751;SDS011;52486;51.098;13.770;2022-10-16T14:57:18;0.50;;;0.50;;
65751;SDS011;52486;51.098;13.770;2022-10-16T14:59:45;0.65;;;0.65;;
65751;SDS011;52486;51.098;13.770;2022-10-16T15:04:43;0.50;;;0.50;;
65751;SDS011;52486;51.098;13.770;2022-10-16T15:07:08;0.60;;;0.60;;
65751;SDS011;52486;51.098;13.770;2022-10-16T15:09:34;0.57;;;0.57;;
65751;SDS011;52486;51.098;13.770;2022-10-16T15:11:59;0.60;;;0.60;;
65751;SDS011;52486;51.098;13.770;2022-10-16T15:14:25;0.60;;;0.60;;
65751;SDS011;52486;51.098;13.770;2022-10-16T15:16:50;0.68;;;0.65;;
65751;SDS011;52486;51.098;13.770;2022-10-16T15:19:16;0.52;;;0.52;;
65751;SDS011;52486;51.098;13.770;2022-10-16T15:21:42;0.60;;;0.60;;
65751;SDS011;52486;51.098;13.770;2022-10-16T15:24:09;0.60;;;0.60;;
65751;SDS011;52486;51.098;13.770;2022-10-16T15:26:38;0.77;;;0.77;;
65751;SDS011;52486;51.098;13.770;2022-10-16T15:29:03;0.60;;;0.60;;
65751;SDS011;52486;51.098;13.770;2022-10-16T15:31:29;1.20;;;0.70;;
65751;SDS011;52486;51.098;13.770;2022-10-16T15:33:55;2.78;;;0.57;;
65751;SDS011;52486;51.098;13.770;2022-10-16T15:36:29;0.75;;;0.52;;
65751;SDS011;52486;51.098;13.770;2022-10-16T15:38:58;0.60;;;0.60;;
65751;SDS011;52486;51.098;13.770;2022-10-16T15:41:24;0.65;;;0.65;;
65751;SDS011;52486;51.098;13.770;2022-10-16T15:43:50;0.50;;;0.50;;
65751;SDS011;52486;51.098;13.770;2022-10-16T15:46:17;0.60;;;0.60;;
65751;SDS011;52486;51.098;13.770;2022-10-16T15:48:44;0.40;;;0.40;;
65751;SDS011;52486;51.098;13.770;2022-10-16T15:51:10;0.98;;;0.43;;
65751;SDS011;52486;51.098;13.770;2022-10-16T15:53:36;0.40;;;0.40;;
65751;SDS011;52486;51.098;13.770;2022-10-16T15:56:05;0.50;;;0.50;;
65751;SDS011;52486;51.098;13.770;2022-10-16T15:58:31;0.60;;;0.60;;
65751;SDS011;52486;51.098;13.770;2022-10-16T16:00:58;0.57;;;0.57;;
65751;SDS011;52486;51.098;13.770;2022-10-16T16:03:28;0.57;;;0.57;;
65751;SDS011;52486;51.098;13.770;2022-10-16T16:05:55;0.52;;;0.52;;
65751;SDS011;52486;51.098;13.770;2022-10-16T16:08:21;0.43;;;0.43;;
65751;SDS011;52486;51.098;13.770;2022-10-16T16:11:07;0.50;;;0.50;;
65751;SDS011;52486;51.098;13.770;2022-10-16T16:13:34;1.05;;;0.68;;
65751;SDS011;52486;51.098;13.770;2022-10-16T16:16:05;0.60;;;0.60;;